createdAt,value
2018-04-23T00:00:26.078Z,26.40
2018-04-23T00:02:43.409Z,24.07
2018-04-23T00:04:54.289Z,25.20
2018-04-23T00:07:09.255Z,23.57
2018-04-23T00:09:19.832Z,21.50
2018-04-23T00:11:26.165Z,21.10
2018-04-23T00:13:39.216Z,18.70
2018-04-23T00:15:47.720Z,15.20
2018-04-23T00:17:56.182Z,14.90
2018-04-23T00:20:08.874Z,17.40
2018-04-23T00:22:26.161Z,15.87
2018-04-23T00:24:32.353Z,17.30
2018-04-23T00:26:40.981Z,18.07
2018-04-23T00:28:51.803Z,19.93
2018-04-23T00:30:55.892Z,19.40
2018-04-23T00:33:02.014Z,19.50
2018-04-23T00:35:08.340Z,21.73
2018-04-23T00:37:18.666Z,22.40
2018-04-23T00:39:34.121Z,22.33
2018-04-23T00:41:42.491Z,24.33
2018-04-23T00:43:55.170Z,23.63
2018-04-23T00:46:05.952Z,24.70
2018-04-23T00:48:10.087Z,23.63
2018-04-23T00:50:14.113Z,24.00
2018-04-23T00:52:24.878Z,24.70
2018-04-23T00:54:30.984Z,25.50
2018-04-23T00:56:41.540Z,25.33
2018-04-23T00:58:52.249Z,24.83
2018-04-23T01:00:56.294Z,26.87
2018-04-23T01:03:04.825Z,25.83
2018-04-23T01:05:24.235Z,25.03
2018-04-23T01:07:32.651Z,26.27
2018-04-23T01:09:41.194Z,25.33
2018-04-23T01:11:45.211Z,24.63
2018-04-23T01:13:49.371Z,24.20
2018-04-23T01:16:00.189Z,24.67
2018-04-23T01:18:04.297Z,23.83
2018-04-23T01:20:13.004Z,25.13
2018-04-23T01:22:23.888Z,24.40
2018-04-23T01:24:30.263Z,25.70
2018-04-23T01:26:38.763Z,25.00
2018-04-23T01:28:47.291Z,26.30
2018-04-23T01:30:59.904Z,24.03
2018-04-23T01:33:12.656Z,25.83
2018-04-23T01:35:21.430Z,25.20
2018-04-23T01:37:25.478Z,24.60
2018-04-23T01:39:31.787Z,24.50
2018-04-23T01:41:42.684Z,26.20
2018-04-23T01:43:53.537Z,23.57
2018-04-23T01:45:57.545Z,24.07
2018-04-23T01:48:03.831Z,23.23
2018-04-23T01:50:16.904Z,22.47
2018-04-23T01:52:32.049Z,23.10
2018-04-23T01:54:49.006Z,23.57
2018-04-23T01:56:54.971Z,23.60
2018-04-23T01:59:01.384Z,23.97
2018-04-23T02:01:07.728Z,25.27
2018-04-23T02:03:17.863Z,26.50
2018-04-23T02:05:24.128Z,26.17
2018-04-23T02:07:37.211Z,27.10
2018-04-23T02:09:41.348Z,27.77
2018-04-23T02:11:45.545Z,27.17
2018-04-23T02:13:58.286Z,25.23
2018-04-23T02:16:02.409Z,23.83
2018-04-23T02:18:13.231Z,21.87
2018-04-23T02:20:19.229Z,21.07
2018-04-23T02:22:27.772Z,19.53
2018-04-23T02:24:36.337Z,19.00
2018-04-23T02:26:44.569Z,18.10
2018-04-23T02:28:50.876Z,17.90
2018-04-23T02:30:58.256Z,17.43
2018-04-23T02:33:04.570Z,17.83
2018-04-23T02:35:10.773Z,17.50
2018-04-23T02:37:17.029Z,17.43
2018-04-23T02:39:21.070Z,17.93
2018-04-23T02:41:25.214Z,16.30
2018-04-23T02:43:31.499Z,15.10
2018-04-23T02:45:37.858Z,15.17
2018-04-23T02:47:46.154Z,16.17
2018-04-23T02:49:54.533Z,14.20
2018-04-23T02:51:58.646Z,15.33
2018-04-23T02:54:11.660Z,14.10
2018-04-23T02:56:15.906Z,13.90
2018-04-23T02:58:26.614Z,13.77
2018-04-23T03:00:37.174Z,12.43
2018-04-23T03:02:41.263Z,11.67
2018-04-23T03:04:49.906Z,11.30
2018-04-23T03:06:53.967Z,11.03
2018-04-23T03:09:00.247Z,11.03
2018-04-23T03:11:06.544Z,9.97
2018-04-23T03:13:19.439Z,10.20
2018-04-23T03:15:28.068Z,9.70
2018-04-23T03:17:32.165Z,9.33
2018-04-23T03:19:38.176Z,9.50
2018-04-23T03:21:50.682Z,8.60
2018-04-23T03:23:56.714Z,8.87
2018-04-23T03:26:02.733Z,8.00
2018-04-23T03:28:10.731Z,7.50
2018-04-23T03:30:25.914Z,8.80
2018-04-23T03:32:32.188Z,8.30
2018-04-23T03:34:38.320Z,7.77
2018-04-23T03:36:42.479Z,7.47
2018-04-23T03:38:50.816Z,9.30
2018-04-23T03:40:54.904Z,8.00
2018-04-23T03:43:01.367Z,8.67
2018-04-23T03:45:11.961Z,7.80
2018-04-23T03:47:18.372Z,7.93
2018-04-23T03:49:22.455Z,8.00
2018-04-23T03:51:31.648Z,7.37
2018-04-23T03:53:41.454Z,7.67
2018-04-23T03:55:45.512Z,7.67
2018-04-23T03:57:49.595Z,7.53
2018-04-23T03:59:58.186Z,8.30
2018-04-23T04:02:02.223Z,7.97
2018-04-23T04:04:08.645Z,7.60
2018-04-23T04:06:14.994Z,8.80
2018-04-23T04:08:23.467Z,8.67
2018-04-23T04:10:27.570Z,8.40
2018-04-23T04:12:37.497Z,8.20
2018-04-23T04:14:49.462Z,8.43
2018-04-23T04:16:59.793Z,8.73
2018-04-23T04:19:16.842Z,8.73
2018-04-23T04:21:20.933Z,9.10
2018-04-23T04:23:31.708Z,8.30
2018-04-23T04:25:38.033Z,7.73
2018-04-23T04:27:52.837Z,9.07
2018-04-23T04:30:03.616Z,8.73
2018-04-23T04:32:07.685Z,7.83
2018-04-23T04:34:11.804Z,8.67
2018-04-23T04:36:17.943Z,8.97
2018-04-23T04:38:29.229Z,8.27
2018-04-23T04:40:33.245Z,9.40
2018-04-23T04:42:39.541Z,8.90
2018-04-23T04:44:45.631Z,8.90
2018-04-23T04:47:09.350Z,8.97
2018-04-23T04:49:15.574Z,9.00
2018-04-23T04:51:19.672Z,9.20
2018-04-23T04:53:30.663Z,8.70
2018-04-23T04:55:34.663Z,8.60
2018-04-23T04:57:45.551Z,8.37
2018-04-23T04:59:51.754Z,8.47
2018-04-23T05:01:57.961Z,7.80
2018-04-23T05:04:06.530Z,8.97
2018-04-23T05:06:12.189Z,8.40
2018-04-23T05:08:16.270Z,8.97
2018-04-23T05:10:22.579Z,7.90
2018-04-23T05:12:32.929Z,8.20
2018-04-23T05:14:46.062Z,10.20
2018-04-23T05:16:50.066Z,8.00
2018-04-23T05:18:54.104Z,8.13
2018-04-23T05:21:00.463Z,9.27
2018-04-23T05:23:04.662Z,8.70
2018-04-23T05:25:12.844Z,8.33
2018-04-23T05:27:19.278Z,9.10
2018-04-23T05:29:25.772Z,9.50
2018-04-23T05:31:31.818Z,9.30
2018-04-23T05:33:40.360Z,9.70
2018-04-23T05:35:48.884Z,9.70
2018-04-23T05:37:52.999Z,9.07
2018-04-23T05:40:03.813Z,9.23
2018-04-23T05:42:12.143Z,9.10
2018-04-23T05:44:20.289Z,11.63
2018-04-23T05:46:24.698Z,9.53
2018-04-23T05:48:33.307Z,9.03
2018-04-23T05:50:39.644Z,9.77
2018-04-23T05:52:45.639Z,8.80
2018-04-23T05:54:58.817Z,10.50
2018-04-23T05:57:07.307Z,9.47
2018-04-23T05:59:13.677Z,8.93
2018-04-23T06:01:24.564Z,10.23
2018-04-23T06:03:33.080Z,10.27
2018-04-23T06:05:37.166Z,10.10
2018-04-23T06:07:41.234Z,9.90
2018-04-23T06:09:51.909Z,9.37
2018-04-23T06:12:02.662Z,10.00
2018-04-23T06:14:13.086Z,10.63
2018-04-23T06:16:17.149Z,10.37
2018-04-23T06:18:21.240Z,9.97
2018-04-23T06:20:34.105Z,9.60
2018-04-23T06:22:44.948Z,10.73
2018-04-23T06:24:57.615Z,9.87
2018-04-23T06:27:10.290Z,8.87
2018-04-23T06:31:42.563Z,10.17
2018-04-23T06:33:46.848Z,10.50
2018-04-23T06:35:58.262Z,10.67
2018-04-23T06:38:04.305Z,9.90
2018-04-23T06:40:15.307Z,10.47
2018-04-23T06:42:21.621Z,11.07
2018-04-23T06:44:34.757Z,10.63
2018-04-23T06:46:43.483Z,10.30
2018-04-23T06:48:49.693Z,10.23
2018-04-23T06:50:55.655Z,10.27
2018-04-23T06:53:08.865Z,10.63
2018-04-23T06:55:15.180Z,10.07
2018-04-23T06:57:23.754Z,9.80
2018-04-23T06:59:32.344Z,8.87
2018-04-23T07:01:40.868Z,9.83
2018-04-23T07:03:45.038Z,10.30
2018-04-23T07:05:51.417Z,9.50
2018-04-23T07:07:57.802Z,10.70
2018-04-23T07:10:04.102Z,11.10
2018-04-23T07:12:10.460Z,9.30
2018-04-23T07:14:25.543Z,9.70
2018-04-23T07:16:29.687Z,10.13
2018-04-23T07:18:38.273Z,10.83
2018-04-23T07:20:48.567Z,8.97
2018-04-23T07:22:52.697Z,8.80
2018-04-23T07:25:03.705Z,9.30
2018-04-23T07:27:12.216Z,10.13
2018-04-23T07:29:16.328Z,9.73
2018-04-23T07:31:28.955Z,9.90
2018-04-23T07:33:35.048Z,10.03
2018-04-23T07:35:39.109Z,9.53
2018-04-23T07:37:43.176Z,8.13
2018-04-23T07:39:47.250Z,8.93
2018-04-23T07:41:55.439Z,8.43
2018-04-23T07:44:08.403Z,8.10
2018-04-23T07:46:12.548Z,8.90
2018-04-23T07:48:23.353Z,7.83
2018-04-23T07:50:27.424Z,7.80
2018-04-23T07:52:31.587Z,8.67
2018-04-23T07:54:48.855Z,8.27
2018-04-23T07:57:04.029Z,8.63
2018-04-23T07:59:08.178Z,8.40
2018-04-23T08:01:18.774Z,8.30
2018-04-23T08:03:22.962Z,8.10
2018-04-23T08:05:28.880Z,7.97
2018-04-23T08:07:35.331Z,7.73
2018-04-23T08:09:39.604Z,8.30
2018-04-23T08:11:43.692Z,8.63
2018-04-23T08:13:47.747Z,9.00
2018-04-23T08:15:51.881Z,7.53
2018-04-23T08:17:58.072Z,8.20
2018-04-23T08:20:06.663Z,9.10
2018-04-23T08:22:15.191Z,8.70
2018-04-23T08:24:19.230Z,10.40
2018-04-23T08:26:23.245Z,9.27
2018-04-23T08:28:27.350Z,8.43
2018-04-23T08:30:31.376Z,8.83
2018-04-23T08:32:37.699Z,8.87
2018-04-23T08:34:41.934Z,7.87
2018-04-23T08:36:46.070Z,8.30
2018-04-23T08:38:50.088Z,7.67
2018-04-23T08:40:54.157Z,8.30
2018-04-23T08:42:58.215Z,8.07
2018-04-23T08:45:02.231Z,7.77
2018-04-23T08:47:06.309Z,7.60
2018-04-23T08:49:10.323Z,7.60
2018-04-23T08:51:14.376Z,8.10
2018-04-23T08:53:18.631Z,7.80
2018-04-23T08:55:22.654Z,7.13
2018-04-23T08:57:26.713Z,7.57
2018-04-23T09:02:05.531Z,7.80
2018-04-23T09:04:09.554Z,7.43
2018-04-23T09:06:13.577Z,7.10
2018-04-23T09:08:17.577Z,7.57
2018-04-23T09:10:21.603Z,7.17
2018-04-23T09:12:25.670Z,6.80
2018-04-23T09:14:29.669Z,6.27
2018-04-23T09:16:33.720Z,6.60
2018-04-23T09:18:37.854Z,6.57
2018-04-23T09:20:41.919Z,7.13
2018-04-23T09:22:45.918Z,6.53
2018-04-23T09:24:49.976Z,6.53
2018-04-23T09:26:54.027Z,6.70
2018-04-23T09:28:58.083Z,6.33
2018-04-23T09:31:02.132Z,5.50
2018-04-23T09:33:06.174Z,5.70
2018-04-23T09:35:10.297Z,6.25
2018-04-23T09:37:20.637Z,6.37
2018-04-23T09:39:24.683Z,6.50
2018-04-23T09:41:28.731Z,7.10
2018-04-23T09:43:32.773Z,7.07
2018-04-23T09:45:36.797Z,6.50
2018-04-23T09:47:40.856Z,7.00
2018-04-23T09:49:45.136Z,6.33
2018-04-23T09:51:49.170Z,4.80
2018-04-23T09:53:53.185Z,4.77
2018-04-23T09:55:57.216Z,4.75
2018-04-23T10:00:25.717Z,4.53
2018-04-23T10:02:29.741Z,4.80
2018-04-23T10:04:33.771Z,4.47
2018-04-23T10:06:37.789Z,4.35
2018-04-23T10:08:41.829Z,4.05
2018-04-23T10:10:45.855Z,4.40
2018-04-23T10:12:49.868Z,4.03
2018-04-23T10:14:53.937Z,3.70
2018-04-23T10:16:58.033Z,4.80
2018-04-23T10:19:02.077Z,4.80
2018-04-23T10:21:06.073Z,4.93
2018-04-23T10:23:10.102Z,5.35
2018-04-23T10:25:14.147Z,5.33
2018-04-23T10:27:18.146Z,4.97
2018-04-23T10:29:22.175Z,5.60
2018-04-23T10:31:26.253Z,5.70
2018-04-23T10:33:30.398Z,5.33
2018-04-23T10:35:34.423Z,6.20
2018-04-23T10:40:13.355Z,5.83
2018-04-23T10:42:17.841Z,5.30
2018-04-23T10:44:21.915Z,5.57
2018-04-23T10:46:25.922Z,4.80
2018-04-23T10:48:29.989Z,4.60
2018-04-23T10:50:34.034Z,4.75
2018-04-23T10:52:38.033Z,5.07
2018-04-23T10:54:42.168Z,4.45
2018-04-23T10:56:46.184Z,4.60
2018-04-23T10:58:50.223Z,5.10
2018-04-23T11:00:54.257Z,4.90
2018-04-23T11:02:58.340Z,4.70
2018-04-23T11:05:02.387Z,5.53
2018-04-23T11:07:06.430Z,5.70
2018-04-23T11:09:10.473Z,6.40
2018-04-23T11:11:14.641Z,6.30
2018-04-23T11:13:18.788Z,7.30
2018-04-23T11:15:23.884Z,6.90
2018-04-23T11:17:27.900Z,7.00
2018-04-23T11:19:31.924Z,6.60
2018-04-23T11:21:35.959Z,6.77
2018-04-23T11:23:39.974Z,6.23
2018-04-23T11:25:44.010Z,7.10
2018-04-23T11:27:48.056Z,7.03
2018-04-23T11:29:52.054Z,8.00
2018-04-23T11:31:56.092Z,7.83
2018-04-23T11:34:00.108Z,7.57
2018-04-23T11:36:04.102Z,6.13
2018-04-23T11:38:08.140Z,6.43
2018-04-23T11:40:12.152Z,6.87
2018-04-23T11:42:16.391Z,5.60
2018-04-23T11:44:20.444Z,5.90
2018-04-23T11:46:24.450Z,6.90
2018-04-23T11:48:28.470Z,5.67
2018-04-23T11:50:32.638Z,7.23
2018-04-23T11:52:36.655Z,7.10
2018-04-23T11:54:40.686Z,7.00
2018-04-23T11:56:44.783Z,7.00
2018-04-23T11:58:49.162Z,6.33
2018-04-23T12:00:53.322Z,6.53
2018-04-23T12:02:57.340Z,6.50
2018-04-23T12:05:01.363Z,5.47
2018-04-23T12:07:05.445Z,5.90
2018-04-23T12:09:09.493Z,6.43
2018-04-23T12:11:13.504Z,6.77
2018-04-23T12:13:17.565Z,5.80
2018-04-23T12:15:21.589Z,6.70
2018-04-23T12:17:26.226Z,7.17
2018-04-23T12:19:30.270Z,7.20
2018-04-23T12:21:34.437Z,6.40
2018-04-23T12:23:38.542Z,6.50
2018-04-23T12:25:42.593Z,5.70
2018-04-23T12:27:46.614Z,5.90
2018-04-23T12:29:50.663Z,6.20
2018-04-23T12:31:54.696Z,6.73
2018-04-23T12:33:58.713Z,7.70
2018-04-23T12:36:02.819Z,8.57
2018-04-23T12:38:06.844Z,8.67
2018-04-23T12:40:10.873Z,8.40
2018-04-23T12:42:14.937Z,9.00
2018-04-23T12:44:19.076Z,7.90
2018-04-23T12:46:23.166Z,8.23
2018-04-23T12:48:27.173Z,8.33
2018-04-23T12:50:31.216Z,7.90
2018-04-23T12:52:35.375Z,7.50
2018-04-23T12:54:39.417Z,7.27
2018-04-23T12:56:43.441Z,7.40
2018-04-23T12:58:47.471Z,9.10
2018-04-23T13:00:51.531Z,7.67
2018-04-23T13:02:55.563Z,8.23
2018-04-23T13:04:59.767Z,6.97
2018-04-23T13:07:03.773Z,6.90
2018-04-23T13:09:07.841Z,6.27
2018-04-23T13:11:12.071Z,8.53
2018-04-23T13:13:16.095Z,9.43
2018-04-23T13:15:20.142Z,9.77
2018-04-23T13:17:24.276Z,9.30
2018-04-23T13:19:28.339Z,8.47
2018-04-23T13:21:32.368Z,9.63
2018-04-23T13:23:36.556Z,9.67
2018-04-23T13:25:40.590Z,8.50
2018-04-23T13:27:44.817Z,8.67
2018-04-23T13:29:49.011Z,7.97
2018-04-23T13:31:53.041Z,7.20
2018-04-23T13:33:57.110Z,7.50
2018-04-23T13:36:01.280Z,6.60
2018-04-23T13:38:05.655Z,7.83
2018-04-23T13:40:09.652Z,6.57
2018-04-23T13:42:13.711Z,7.10
2018-04-23T13:44:17.733Z,7.87
2018-04-23T13:46:21.810Z,7.60
2018-04-23T13:48:25.844Z,8.13
2018-04-23T13:50:29.869Z,8.87
2018-04-23T13:52:33.928Z,8.13
2018-04-23T13:54:37.936Z,9.50
2018-04-23T13:56:41.969Z,8.93
2018-04-23T13:58:46.010Z,8.50
2018-04-23T14:00:50.016Z,8.93
2018-04-23T14:02:54.080Z,9.07
2018-04-23T14:04:58.106Z,9.10
2018-04-23T14:07:02.337Z,9.53
2018-04-23T14:09:06.372Z,9.40
2018-04-23T14:11:10.427Z,8.83
2018-04-23T14:13:14.454Z,9.20
2018-04-23T14:15:18.490Z,9.73
2018-04-23T14:17:22.570Z,9.43
2018-04-23T14:19:26.634Z,8.63
2018-04-23T14:21:30.641Z,9.10
2018-04-23T14:23:34.681Z,10.13
2018-04-23T14:25:38.701Z,9.30
2018-04-23T14:27:42.725Z,8.20
2018-04-23T14:29:46.813Z,8.80
2018-04-23T14:31:50.849Z,9.20
2018-04-23T14:33:54.953Z,8.83
2018-04-23T14:35:59.000Z,9.77
2018-04-23T14:38:03.083Z,10.07
2018-04-23T14:40:07.141Z,9.50
2018-04-23T14:42:11.293Z,10.07
2018-04-23T14:44:15.325Z,9.50
2018-04-23T14:46:19.377Z,9.83
2018-04-23T14:48:23.447Z,11.20
2018-04-23T14:50:28.769Z,11.30
2018-04-23T14:52:32.829Z,10.90
2018-04-23T14:54:37.391Z,10.53
2018-04-23T14:56:41.480Z,10.10
2018-04-23T14:58:45.533Z,10.63
2018-04-23T15:00:49.543Z,9.70
2018-04-23T15:02:53.624Z,10.37
2018-04-23T15:04:57.671Z,9.80
2018-04-23T15:07:01.830Z,9.20
2018-04-23T15:09:05.920Z,10.00
2018-04-23T15:11:09.972Z,9.70
2018-04-23T15:13:13.991Z,9.70
2018-04-23T15:15:18.174Z,10.33
2018-04-23T15:17:22.386Z,9.30
2018-04-23T15:19:26.525Z,9.37
2018-04-23T15:21:30.711Z,9.30
2018-04-23T15:23:34.832Z,9.87
2018-04-23T15:25:38.851Z,9.67
2018-04-23T15:27:42.910Z,9.23
2018-04-23T15:29:46.921Z,10.60
2018-04-23T15:31:51.016Z,9.40
2018-04-23T15:33:55.088Z,10.67
2018-04-23T15:35:59.141Z,10.33
2018-04-23T15:38:03.198Z,10.30
2018-04-23T15:40:07.369Z,10.43
2018-04-23T15:42:11.501Z,10.17
2018-04-23T15:44:18.955Z,10.00
2018-04-23T15:46:23.130Z,9.73
2018-04-23T15:48:27.209Z,10.77
2018-04-23T15:50:31.313Z,11.07
2018-04-23T15:52:35.336Z,10.10
2018-04-23T15:54:39.363Z,10.03
2018-04-23T15:56:43.435Z,10.10
2018-04-23T15:58:47.606Z,10.90
2018-04-23T16:00:51.651Z,10.80
2018-04-23T16:02:55.724Z,10.83
2018-04-23T16:04:59.754Z,11.83
2018-04-23T16:07:03.782Z,11.90
2018-04-23T16:09:07.835Z,13.07
2018-04-23T16:11:11.857Z,12.00
2018-04-23T16:13:16.018Z,12.40
2018-04-23T16:15:20.028Z,12.17
2018-04-23T16:17:24.067Z,13.20
2018-04-23T16:19:28.108Z,12.60
2018-04-23T16:21:32.168Z,13.50
2018-04-23T16:23:36.253Z,11.73
2018-04-23T16:25:40.299Z,11.20
2018-04-23T16:27:44.327Z,11.97
2018-04-23T16:29:48.345Z,11.33
2018-04-23T16:31:52.364Z,11.90
2018-04-23T16:33:56.580Z,12.43
2018-04-23T16:36:00.674Z,12.60
2018-04-23T16:38:04.830Z,12.70
2018-04-23T16:40:08.883Z,12.27
2018-04-23T16:42:12.931Z,11.23
2018-04-23T16:44:17.047Z,12.00
2018-04-23T16:46:21.126Z,12.83
2018-04-23T16:48:25.136Z,12.73
2018-04-23T16:50:29.196Z,13.23
2018-04-23T16:52:33.228Z,14.13
2018-04-23T16:54:37.344Z,13.90
2018-04-23T16:56:41.381Z,13.63
2018-04-23T16:58:45.449Z,14.30
2018-04-23T17:00:49.462Z,14.30
2018-04-23T17:02:53.502Z,14.87
2018-04-23T17:04:58.642Z,13.90
2018-04-23T17:07:03.221Z,13.57
2018-04-23T17:09:08.201Z,13.80
2018-04-23T17:11:12.298Z,13.37
2018-04-23T17:13:16.332Z,12.53
2018-04-23T17:15:20.510Z,11.73
2018-04-23T17:17:24.808Z,12.93
2018-04-23T17:19:28.890Z,12.43
2018-04-23T17:21:32.936Z,12.80
2018-04-23T17:23:36.987Z,12.90
2018-04-23T17:25:41.017Z,12.40
2018-04-23T17:27:45.026Z,13.77
2018-04-23T17:29:49.123Z,14.33
2018-04-23T17:31:53.147Z,12.77
2018-04-23T17:33:57.146Z,14.30
2018-04-23T17:36:01.225Z,13.73
2018-04-23T17:38:05.300Z,13.93
2018-04-23T17:40:09.326Z,15.30
2018-04-23T17:42:13.384Z,15.23
2018-04-23T17:44:17.580Z,16.00
2018-04-23T17:46:21.631Z,15.70
2018-04-23T17:48:25.711Z,16.03
2018-04-23T17:50:29.749Z,16.90
2018-04-23T17:52:33.816Z,16.20
2018-04-23T17:54:37.850Z,15.60
2018-04-23T17:56:41.909Z,15.27
2018-04-23T17:58:45.942Z,16.40
2018-04-23T18:00:50.044Z,16.30
2018-04-23T18:02:54.068Z,15.53
2018-04-23T18:04:58.133Z,16.60
2018-04-23T18:07:02.199Z,16.87
2018-04-23T18:09:07.272Z,18.03
2018-04-23T18:11:11.335Z,18.00
2018-04-23T18:13:15.355Z,16.47
2018-04-23T18:15:19.454Z,18.90
2018-04-23T18:17:23.543Z,17.93
2018-04-23T18:19:27.609Z,17.67
2018-04-23T18:21:31.684Z,17.57
2018-04-23T18:23:35.868Z,18.20
2018-04-23T18:25:39.908Z,17.40
2018-04-23T18:27:43.952Z,17.07
2018-04-23T18:29:48.001Z,16.10
2018-04-23T18:31:52.167Z,17.93
2018-04-23T18:33:56.250Z,16.63
2018-04-23T18:36:00.280Z,17.20
2018-04-23T18:38:04.327Z,17.40
2018-04-23T18:40:09.566Z,17.90
2018-04-23T18:42:13.598Z,16.40
2018-04-23T18:44:17.650Z,17.80
2018-04-23T18:46:21.713Z,16.83
2018-04-23T18:48:25.938Z,15.93
2018-04-23T18:50:29.970Z,15.53
2018-04-23T18:52:34.015Z,16.60
2018-04-23T18:54:38.070Z,16.37
2018-04-23T18:56:42.188Z,16.90
2018-04-23T18:58:46.399Z,15.17
2018-04-23T19:00:50.433Z,17.07
2018-04-23T19:02:54.510Z,16.33
2018-04-23T19:04:58.687Z,16.30
2018-04-23T19:07:02.771Z,16.20
2018-04-23T19:09:06.800Z,17.00
2018-04-23T19:11:10.952Z,16.77
2018-04-23T19:13:15.034Z,17.50
2018-04-23T19:15:19.063Z,17.57
2018-04-23T19:17:23.223Z,17.60
2018-04-23T19:19:27.361Z,17.00
2018-04-23T19:21:31.427Z,16.40
2018-04-23T19:23:35.447Z,18.47
2018-04-23T19:25:41.693Z,19.63
2018-04-23T19:27:45.745Z,22.13
2018-04-23T19:29:49.862Z,22.00
2018-04-23T19:31:58.480Z,21.90
2018-04-23T19:34:02.528Z,19.40
2018-04-23T19:36:08.589Z,17.87
2018-04-23T19:38:14.876Z,19.17
2018-04-23T19:40:19.039Z,18.40
2018-04-23T19:42:31.961Z,19.20
2018-04-23T19:44:38.131Z,17.17
2018-04-23T19:46:44.681Z,17.17
2018-04-23T19:48:53.298Z,18.00
2018-04-23T19:51:04.124Z,17.50
2018-04-23T19:53:12.785Z,18.60
2018-04-23T19:55:19.272Z,19.37
2018-04-23T19:57:31.908Z,19.90
2018-04-23T19:59:42.464Z,21.77
2018-04-23T20:01:50.901Z,20.83
2018-04-23T20:03:57.191Z,21.87
2018-04-23T20:06:01.362Z,19.67
2018-04-23T20:08:09.781Z,19.23
2018-04-23T20:10:27.183Z,18.43
2018-04-23T20:12:33.228Z,18.67
2018-04-23T20:14:44.068Z,16.30
2018-04-23T20:16:50.336Z,16.63
2018-04-23T20:18:54.409Z,17.00
2018-04-23T20:21:02.134Z,15.93
2018-04-23T20:23:08.687Z,15.97
2018-04-23T20:25:14.947Z,15.97
2018-04-23T20:27:23.361Z,14.10
2018-04-23T20:29:38.434Z,15.77
2018-04-23T20:31:49.276Z,14.70
2018-04-23T20:33:53.302Z,14.80
2018-04-23T20:36:01.836Z,13.40
2018-04-23T20:38:06.004Z,13.93
2018-04-23T20:40:12.340Z,14.33
2018-04-23T20:42:20.701Z,14.30
2018-04-23T20:44:24.853Z,14.70
2018-04-23T20:46:28.813Z,14.70
2018-04-23T20:48:35.274Z,14.47
2018-04-23T20:50:41.587Z,13.30
2018-04-23T20:52:45.699Z,12.30
2018-04-23T20:54:49.869Z,9.97
2018-04-23T20:57:00.550Z,9.00
2018-04-23T20:59:06.861Z,7.60
2018-04-23T21:01:13.268Z,7.87
2018-04-23T21:03:17.265Z,7.10
2018-04-23T21:05:25.754Z,6.90
2018-04-23T21:07:29.860Z,6.23
2018-04-23T21:09:33.988Z,6.50
2018-04-23T21:11:42.473Z,6.07
2018-04-23T21:13:51.041Z,5.83
2018-04-23T21:15:59.821Z,6.17
2018-04-23T21:18:12.902Z,5.57
2018-04-23T21:20:16.961Z,6.10
2018-04-23T21:22:23.267Z,5.80
2018-04-23T21:24:38.624Z,6.53
2018-04-23T21:26:51.636Z,5.80
2018-04-23T21:29:00.255Z,6.70
2018-04-23T21:31:06.577Z,6.00
2018-04-23T21:33:17.419Z,5.87
2018-04-23T21:35:26.000Z,5.80
2018-04-23T21:37:36.943Z,5.90
2018-04-23T21:39:41.162Z,6.00
2018-04-23T21:41:58.748Z,8.70
2018-04-23T21:44:07.271Z,6.30
2018-04-23T21:46:15.685Z,7.60
2018-04-23T21:48:26.552Z,6.50
2018-04-23T21:50:39.609Z,7.33
2018-04-23T21:52:48.238Z,6.30
2018-04-23T21:54:56.610Z,6.60
2018-04-23T21:57:05.054Z,6.00
2018-04-23T21:59:11.385Z,6.50
2018-04-23T22:01:21.006Z,6.73
2018-04-23T22:03:25.076Z,6.73
2018-04-23T22:05:33.710Z,5.87
2018-04-23T22:07:46.901Z,6.40
2018-04-23T22:09:53.207Z,5.80
2018-04-23T22:12:01.705Z,5.50
2018-04-23T22:14:19.403Z,5.60
2018-04-23T22:16:36.750Z,5.43
2018-04-23T22:18:51.785Z,5.70
2018-04-23T22:21:00.178Z,5.60
2018-04-23T22:23:04.215Z,4.80
2018-04-23T22:25:08.274Z,4.60
2018-04-23T22:27:12.424Z,3.80
2018-04-23T22:29:20.976Z,4.00
2018-04-23T22:31:25.089Z,4.47
2018-04-23T22:33:31.498Z,3.30
2018-04-23T22:35:37.879Z,3.40
2018-04-23T22:37:46.465Z,3.13
2018-04-23T22:39:59.497Z,3.50
2018-04-23T22:42:03.773Z,2.67
2018-04-23T22:44:12.273Z,2.80
2018-04-23T22:46:23.117Z,2.37
2018-04-23T22:48:30.562Z,2.70
2018-04-23T22:50:36.872Z,2.70
2018-04-23T22:52:40.904Z,2.80
2018-04-23T22:54:51.604Z,2.80
2018-04-23T22:56:55.940Z,2.30
2018-04-23T22:59:06.849Z,2.60
2018-04-23T23:01:17.296Z,2.33
2018-04-23T23:03:21.342Z,2.90
2018-04-23T23:05:25.364Z,2.83
2018-04-23T23:07:33.924Z,2.27
2018-04-23T23:09:44.755Z,2.13
2018-04-23T23:11:48.773Z,2.00
2018-04-23T23:13:55.120Z,2.00
2018-04-23T23:16:03.713Z,2.20
2018-04-23T23:18:16.441Z,2.57
2018-04-23T23:20:22.775Z,2.40
2018-04-23T23:22:35.561Z,2.40
2018-04-23T23:24:39.733Z,2.30
2018-04-23T23:26:50.559Z,2.17
2018-04-23T23:28:59.128Z,2.13
2018-04-23T23:31:07.556Z,1.87
2018-04-23T23:33:20.535Z,2.70
2018-04-23T23:35:27.039Z,2.43
2018-04-23T23:37:33.502Z,2.10
2018-04-23T23:39:42.204Z,2.83
2018-04-23T23:41:55.249Z,2.17
2018-04-23T23:44:08.029Z,2.70
2018-04-23T23:46:12.144Z,2.20
2018-04-23T23:48:25.104Z,2.27
2018-04-23T23:50:33.628Z,1.90
2018-04-23T23:52:42.212Z,1.87
2018-04-23T23:54:52.814Z,1.90
2018-04-23T23:57:01.481Z,1.60
2018-04-23T23:59:07.731Z,1.80
